Latest Weather Observations for Roebourne Airport

IDW60801

Issued at 12:35 pm WST Sunday 23 November 2014 (issued every 30 minutes, with the page automatically refreshed every 10 minutes)

About weather observations | Map of weather stations | Latest weather observations for WA | Other Formats
Station Details ID: 004090 Name: ROEBOURNE AERO Lat: -20.76 Lon: 117.16 Height: 10.7 m
Data from the previous 72 hours. | See also: Recent months at Roebourne Airport
Date/Time
WST
Temp
°C
App
Temp
°C
Dew
Point
Rel
Hum
%
Delta-T
°C
Wind Press
QNH
hPa
Press
MSL
hPa
Rain
since 9 am
mm
Dir
 
Spd
km/h
Gust
km/h
Spd
kts
Gust
kts
23/12:30pm 40.2 36.1 8.6 15 18.3 NW 20 32 11 17 1008.4 1008.4 0.0
23/12:00pm 39.2 35.0 9.7 17 17.3 WNW 22 32 12 17 1008.8 1008.8 0.0
23/11:30am 39.2 35.6 6.8 14 18.2 NW 15 33 8 18 1009.1 1009.1 0.0
23/11:00am 39.4 37.0 7.0 14 18.3 NW 9 22 5 12 1009.5 1009.5 0.0
23/10:30am 38.1 35.1 6.0 14 17.7 W 11 20 6 11 1009.8 1009.8 0.0
23/10:00am 36.8 33.8 5.9 15 16.9 WSW 11 19 6 10 1010.1 1010.1 0.0
23/09:30am 36.0 34.2 8.0 18 15.8 WSW 7 13 4 7 1010.2 1010.2 0.0
23/09:00am 34.3 33.2 12.0 25 13.3 WSW 9 13 5 7 1010.5 1010.5 0.0
23/08:30am 32.4 30.9 13.1 31 11.6 SW 13 17 7 9 1010.5 1010.5 0.0
23/08:00am 30.5 29.0 14.2 37 9.9 WSW 15 19 8 10 1010.4 1010.4 0.0
23/07:30am 28.4 26.9 15.3 45 8.0 W 17 20 9 11 1010.2 1010.2 0.0
23/07:00am 25.3 24.1 16.2 57 5.6 W 17 20 9 11 1010.0 1010.0 0.0
23/06:30am 24.1 24.4 16.9 64 4.4 WNW 11 13 6 7 1009.6 1009.6 0.0
23/06:00am 22.8 24.1 17.5 72 3.3 W 7 11 4 6 1009.3 1009.3 0.0
23/05:30am 22.9 23.5 17.8 73 3.2 W 11 15 6 8 1008.9 1008.9 0.0
23/05:00am 23.1 23.1 18.2 74 3.1 W 15 19 8 10 1008.7 1008.7 0.0
23/04:30am 23.3 23.6 18.8 76 2.8 W 15 19 8 10 1008.5 1008.5 0.0
23/04:00am 23.4 24.1 18.9 76 2.9 W 13 17 7 9 1008.1 1008.1 0.0
23/03:30am 23.5 23.9 19.0 76 2.9 W 15 19 8 10 1008.3 1008.3 0.0
23/03:00am 23.9 24.0 19.2 75 3.0 W 17 20 9 11 1008.1 1008.1 0.0
23/02:30am 24.2 23.7 19.1 73 3.3 W 20 24 11 13 1008.2 1008.2 0.0
23/02:00am 24.5 24.0 19.1 72 3.5 W 20 28 11 15 1008.4 1008.4 0.0
23/01:30am 24.6 24.9 18.8 70 3.7 WNW 15 20 8 11 1008.4 1008.4 0.0
23/01:00am 25.2 26.1 18.4 66 4.3 W 11 15 6 8 1008.4 1008.4 0.0
23/12:30am 25.6 25.4 18.5 65 4.5 WSW 17 20 9 11 1008.6 1008.6 0.0
23/12:00am 25.9 25.9 18.1 62 4.9 WSW 15 20 8 11 1009.0 1009.0 0.0
 
Date/Time
WST
Temp
°C
App
Temp
°C
Dew
Point
Rel
Hum
%
Delta-T
°C
Wind Press
QNH
hPa
Press
MSL
hPa
Rain
since 9 am
mm
Dir
 
Spd
km/h
Gust
km/h
Spd
kts
Gust
kts
22/11:30pm 26.4 25.9 17.7 58 5.5 WSW 17 24 9 13 1009.3 1009.3 0.0
22/11:00pm 26.7 25.4 16.9 55 6.1 W 19 28 10 15 1009.6 1009.6 0.0
22/10:30pm 27.1 25.3 16.1 51 6.8 W 20 28 11 15 1009.7 1009.7 0.0
22/10:00pm 27.4 24.3 15.7 48 7.2 WSW 26 33 14 18 1009.7 1009.7 0.0
22/09:30pm 27.4 25.0 17.3 54 6.3 W 26 37 14 20 1009.9 1009.9 0.0
22/09:00pm 27.3 25.3 19.1 61 5.3 W 28 35 15 19 1009.7 1009.7 0.0
22/08:30pm 27.6 25.9 19.7 62 5.1 W 28 37 15 20 1009.4 1009.4 0.0
22/08:00pm 28.2 26.0 18.6 56 6.2 W 28 35 15 19 1009.3 1009.3 0.0
22/07:30pm 29.1 26.0 16.6 46 7.8 W 28 35 15 19 1009.0 1009.0 0.0
22/07:00pm 30.8 27.5 14.0 36 10.2 W 24 35 13 19 1008.8 1008.8 0.0
22/06:30pm 30.9 26.6 13.2 34 10.6 W 28 33 15 18 1008.6 1008.6 0.0
22/06:00pm 31.9 26.2 11.7 29 11.9 WNW 33 41 18 22 1008.5 1008.5 0.0
22/05:30pm 32.4 27.7 13.1 31 11.6 WNW 30 39 16 21 1008.3 1008.3 0.0
22/05:00pm 32.4 27.7 15.8 36 10.4 WNW 35 43 19 23 1008.2 1008.2 0.0
22/04:30pm 33.4 28.9 15.4 34 11.2 WNW 33 43 18 23 1008.1 1008.1 0.0
22/04:00pm 35.5 30.2 14.2 28 13.2 WNW 35 43 19 23 1008.0 1008.0 0.0
22/03:30pm 36.4 30.3 11.9 23 14.7 NW 35 44 19 24 1008.0 1008.0 0.0
22/03:00pm 37.5 31.7 11.5 21 15.6 NW 33 43 18 23 1008.1 1008.1 0.0
22/02:30pm 38.2 32.6 12.0 21 15.8 NW 33 41 18 22 1008.3 1008.3 0.0
22/02:00pm 37.9 32.0 10.3 19 16.3 NW 32 43 17 23 1008.3 1008.3 0.0
22/01:30pm 38.7 33.2 11.7 20 16.3 NW 32 43 17 23 1008.6 1008.6 0.0
22/01:00pm 38.4 33.2 11.5 20 16.2 WNW 30 39 16 21 1008.7 1008.7 0.0
22/12:30pm 39.2 34.9 12.1 20 16.4 NW 26 37 14 20 1009.0 1009.0 0.0
22/12:00pm 38.4 34.7 11.5 20 16.2 WNW 22 32 12 17 1009.2 1009.2 0.0
22/11:30am 38.6 34.8 12.4 21 15.9 NW 24 28 13 15 1009.5 1009.5 0.0
22/11:00am 38.0 35.9 9.6 18 16.6 NW 11 24 6 13 1009.8 1009.8 0.0
22/10:30am 36.9 33.0 8.7 18 16.1 W 19 28 10 15 1010.0 1010.0 0.0
22/10:00am 36.6 32.5 10.0 20 15.5 W 22 33 12 18 1010.2 1010.2 0.0
22/09:30am 35.6 32.0 8.4 19 15.4 WSW 17 24 9 13 1010.6 1010.6 0.0
22/09:00am 33.8 30.9 11.0 25 13.3 WSW 17 20 9 11 1010.5 1010.5 0.0
22/08:30am 32.0 29.3 12.8 31 11.4 W 19 24 10 13 1010.5 1010.5 0.0
22/08:00am 30.4 28.0 13.7 36 10.0 WSW 19 24 10 13 1010.3 1010.3 0.0
22/07:30am 28.7 26.7 14.9 43 8.4 W 19 22 10 12 1010.4 1010.4 0.0
22/07:00am 27.2 26.4 15.2 47 7.3 W 13 17 7 9 1010.3 1010.3 0.0
22/06:30am 24.9 24.6 15.5 56 5.7 W 11 15 6 8 1009.8 1009.8 0.0
22/06:00am 23.0 22.8 15.6 63 4.5 WNW 11 15 6 8 1009.3 1009.3 0.0
22/05:30am 22.5 21.9 15.6 65 4.1 W 13 17 7 9 1009.1 1009.1 0.0
22/05:00am 22.7 21.0 15.8 65 4.2 W 19 22 10 12 1008.9 1008.9 0.0
22/04:30am 23.2 21.8 16.5 66 4.1 W 19 22 10 12 1008.8 1008.8 0.0
22/04:00am 23.7 22.6 17.2 67 4.0 W 19 26 10 14 1008.6 1008.6 0.0
22/03:30am 23.8 22.9 17.8 69 3.7 W 19 22 10 12 1008.3 1008.3 0.0
22/03:00am 23.8 23.7 17.8 69 3.8 W 15 17 8 9 1008.4 1008.4 0.0
22/02:30am 24.1 24.4 17.8 68 3.9 W 13 17 7 9 1008.4 1008.4 0.0
22/02:00am 24.4 23.6 17.9 67 4.1 W 19 22 10 12 1008.4 1008.4 0.0
22/01:30am 24.7 24.5 17.7 65 4.4 W 15 20 8 11 1008.3 1008.3 0.0
22/01:00am 25.2 24.4 17.9 64 4.6 W 19 24 10 13 1008.4 1008.4 0.0
22/12:30am 25.5 24.7 17.9 63 4.8 W 19 22 10 12 1008.8 1008.8 0.0
22/12:00am 25.8 24.9 18.2 63 4.8 W 20 28 11 15 1009.1 1009.1 0.0
 
Date/Time
WST
Temp
°C
App
Temp
°C
Dew
Point
Rel
Hum
%
Delta-T
°C
Wind Press
QNH
hPa
Press
MSL
hPa
Rain
since 9 am
mm
Dir
 
Spd
km/h
Gust
km/h
Spd
kts
Gust
kts
21/11:30pm 26.1 24.2 18.5 63 4.8 W 26 33 14 18 1009.2 1009.2 0.0
21/11:00pm 26.6 24.6 18.2 60 5.3 W 26 35 14 19 1009.4 1009.4 0.0
21/10:30pm 27.1 24.4 17.6 56 6.0 W 28 35 15 19 1009.6 1009.6 0.0
21/10:00pm 27.5 24.3 15.2 47 7.5 W 26 33 14 18 1009.7 1009.7 0.0
21/09:30pm 27.7 24.4 14.0 43 8.2 W 24 30 13 16 1009.6 1009.6 0.0
21/09:00pm 27.9 24.0 14.5 44 8.1 W 28 35 15 19 1009.5 1009.5 0.0
21/08:30pm 28.3 25.4 16.2 47 7.5 W 26 35 14 19 1009.2 1009.2 0.0
21/08:00pm 29.2 26.6 16.0 44 8.2 W 24 32 13 17 1008.9 1008.9 0.0
21/07:30pm 30.0 26.5 13.3 36 9.9 W 24 32 13 17 1008.6 1008.6 0.0
21/07:00pm 30.7 26.2 10.1 28 11.7 W 24 33 13 18 1008.4 1008.4 0.0
21/06:30pm 31.5 25.7 10.8 28 11.9 W 32 39 17 21 1007.9 1007.9 0.0
21/06:00pm 33.0 27.4 11.5 27 12.6 WNW 32 39 17 21 1007.9 1007.9 0.0
21/05:30pm 34.1 27.0 9.4 22 14.1 WNW 37 46 20 25 1007.8 1007.8 0.0
21/05:00pm 35.2 29.1 11.6 24 14.0 WNW 35 43 19 23 1007.5 1007.5 0.0
21/04:30pm 36.5 29.3 10.6 21 15.2 WNW 39 50 21 27 1007.2 1007.2 0.0
21/04:00pm 38.1 30.3 4.9 13 18.1 WNW 35 43 19 23 1007.2 1007.2 0.0
21/03:30pm 37.9 31.5 9.5 18 16.5 WNW 33 43 18 23 1007.4 1007.4 0.0
21/03:00pm 38.0 31.7 11.1 20 16.0 WNW 35 43 19 23 1007.7 1007.7 0.0
21/02:30pm 39.3 33.9 12.2 20 16.5 WNW 32 43 17 23 1007.8 1007.8 0.0
21/02:00pm 39.2 34.3 11.3 19 16.8 WNW 28 35 15 19 1008.0 1008.0 0.0
21/01:30pm 39.8 34.8 11.0 18 17.2 WNW 28 35 15 19 1008.4 1008.4 0.0
21/01:00pm 39.0 34.5 12.7 21 16.1 NW 28 35 15 19 1008.8 1008.8 0.0
21/12:30pm 39.9 35.7 11.1 18 17.3 WNW 24 32 13 17 1009.1 1009.1 0.0
21/12:00pm 39.0 35.1 12.0 20 16.4 NW 24 33 13 18 1009.3 1009.3 0.0
21/11:30am 39.1 35.0 8.7 16 17.6 NW 20 26 11 14 1009.7 1009.7 0.0
21/11:00am 37.8 34.4 7.7 16 17.0 W 15 24 8 13 1010.1 1010.1 0.0
21/10:30am 37.8 34.6 6.7 15 17.3 W 13 20 7 11 1010.5 1010.5 0.0
21/10:00am 37.4 32.9 4.4 13 17.7 W 17 24 9 13 1010.8 1010.8 0.0
21/09:30am 36.2 33.3 6.4 16 16.4 W 11 20 6 11 1011.1 1011.1 0.0
21/09:00am 35.0 33.0 8.7 20 14.9 W 9 17 5 9 1011.0 1011.0 0.0
21/08:30am 33.5 31.7 9.5 23 13.7 W 9 15 5 8 1011.1 1011.1 0.0
21/08:00am 31.6 29.5 9.8 26 12.4 WSW 11 13 6 7 1011.0 1011.0 0.0
21/07:30am 30.2 27.7 9.7 28 11.5 WSW 13 17 7 9 1010.9 1010.9 0.0
21/07:00am 28.7 26.1 9.4 30 10.7 WSW 13 17 7 9 1010.8 1010.8 0.0
21/06:30am 26.9 24.8 9.7 34 9.5 W 11 15 6 8 1010.3 1010.3 0.0
21/06:00am 24.7 22.9 9.4 38 8.3 W 9 13 5 7 1010.0 1010.0 0.0
21/05:30am 23.0 22.5 9.4 42 7.3 W 2 7 1 4 1009.6 1009.6 0.0
21/05:00am 24.4 23.1 9.2 38 8.3 W 6 9 3 5 1009.2 1009.2 0.0
21/04:30am 25.5 22.3 10.1 38 8.5 WSW 17 22 9 12 1008.9 1008.9 0.0
21/04:00am 25.6 22.7 11.0 40 8.2 WSW 17 22 9 12 1008.8 1008.8 0.0
21/03:30am 26.0 23.6 12.5 43 7.8 WSW 17 20 9 11 1008.9 1008.9 0.0
21/03:00am 26.2 24.2 14.0 47 7.2 WSW 17 22 9 12 1008.9 1008.9 0.0
21/02:30am 26.2 24.7 15.3 51 6.6 WSW 17 20 9 11 1009.1 1009.1 0.0
21/02:00am 26.3 25.2 16.3 54 6.2 W 17 20 9 11 1009.1 1009.1 0.0
21/01:30am 26.4 25.0 16.6 55 6.1 WSW 19 24 10 13 1009.3 1009.3 0.0
21/01:00am 26.7 25.8 16.9 55 6.1 W 17 22 9 12 1009.6 1009.6 0.0
21/12:30am 27.0 25.6 16.9 54 6.3 W 20 28 11 15 1009.9 1009.9 0.0
21/12:00am 27.1 24.9 17.0 54 6.3 W 24 32 13 17 1010.0 1010.0 0.0
 
Date/Time
WST
Temp
°C
App
Temp
°C
Dew
Point
Rel
Hum
%
Delta-T
°C
Wind Press
QNH
hPa
Press
MSL
hPa
Rain
since 9 am
mm
Dir
 
Spd
km/h
Gust
km/h
Spd
kts
Gust
kts
20/11:30pm 27.3 25.7 17.5 55 6.2 W 22 30 12 16 1010.3 1010.3 0.0
20/11:00pm 27.4 25.9 17.6 55 6.2 W 22 32 12 17 1010.5 1010.5 0.0
20/10:30pm 27.7 25.5 16.9 51 6.7 W 24 32 13 17 1010.7 1010.7 0.0
20/10:00pm 28.2 25.7 16.1 47 7.5 W 24 30 13 16 1010.8 1010.8 0.0
20/09:30pm 28.6 25.2 15.8 45 7.9 W 28 35 15 19 1010.7 1010.7 0.0
20/09:00pm 29.1 26.2 15.2 42 8.5 W 24 32 13 17 1010.6 1010.6 0.0
20/08:30pm 29.5 26.1 13.7 38 9.5 WNW 24 32 13 17 1010.5 1010.5 0.0
20/08:00pm 30.1 25.7 13.0 35 10.2 WNW 28 39 15 21 1010.1 1010.1 0.0
20/07:30pm 30.8 25.6 10.2 28 11.7 WNW 28 37 15 20 1009.9 1009.9 0.0
20/07:00pm 31.4 26.8 11.2 29 11.7 WNW 26 33 14 18 1009.5 1009.5 0.0
20/06:30pm 32.3 27.5 10.4 26 12.6 WNW 26 33 14 18 1009.2 1009.2 0.0
20/06:00pm 33.8 28.1 9.8 23 13.8 WNW 30 37 16 20 1008.9 1008.9 0.0
20/05:30pm 34.8 29.5 9.9 22 14.4 WNW 28 37 15 20 1008.7 1008.7 0.0
20/05:00pm 35.9 30.5 9.4 20 15.3 NW 28 35 15 19 1008.4 1008.4 0.0
20/04:30pm 36.8 30.8 8.6 18 16.1 NW 30 37 16 20 1008.3 1008.3 0.0
20/04:00pm 37.2 31.1 8.1 17 16.5 NW 30 37 16 20 1008.3 1008.3 0.0
20/03:30pm 37.7 32.7 10.9 20 15.9 NW 28 35 15 19 1008.4 1008.4 0.0
20/03:00pm 38.2 33.1 10.5 19 16.4 NNW 28 37 15 20 1008.7 1008.7 0.0
20/02:30pm 39.3 34.9 8.9 16 17.6 NW 22 37 12 20 1008.8 1008.8 0.0
20/02:00pm 39.3 33.9 7.9 15 18.0 NNW 26 39 14 21 1009.1 1009.1 0.0
20/01:30pm 39.3 34.4 6.9 14 18.2 NNW 22 35 12 19 1009.4 1009.4 0.0
20/01:00pm 38.7 33.7 6.4 14 18.0 N 22 32 12 17 1009.7 1009.7 0.0

Other Formats:

Comma delimited format used in spreadsheet applications
http://www.bom.gov.au/fwo/IDW60801/IDW60801.94308.axf

JavaScript Object Notation format (JSON) in row-major order
http://www.bom.gov.au/fwo/IDW60801/IDW60801.94308.json